createdAt,value
2023-02-02T00:01:11.985Z,1.48
2023-02-02T00:03:39.093Z,1.75
2023-02-02T00:06:05.499Z,2.20
2023-02-02T00:08:31.511Z,2.00
2023-02-02T00:10:57.373Z,2.40
2023-02-02T00:13:23.208Z,2.60
2023-02-02T00:15:49.234Z,3.17
2023-02-02T00:18:15.230Z,3.25
2023-02-02T00:20:41.103Z,3.70
2023-02-02T00:23:06.933Z,4.97
2023-02-02T00:25:32.913Z,5.05
2023-02-02T00:27:58.881Z,6.07
2023-02-02T00:30:24.975Z,8.05
2023-02-02T00:32:52.441Z,8.23
2023-02-02T00:35:18.683Z,9.52
2023-02-02T00:37:44.487Z,9.82
2023-02-02T00:40:11.273Z,10.77
2023-02-02T00:42:37.219Z,10.95
2023-02-02T00:45:16.509Z,12.60
2023-02-02T00:47:44.790Z,12.25
2023-02-02T00:50:14.029Z,12.57
2023-02-02T00:52:39.926Z,12.70
2023-02-02T00:55:06.385Z,13.82
2023-02-02T00:57:32.484Z,14.43
2023-02-02T00:59:58.865Z,14.95
2023-02-02T01:02:24.784Z,13.85
2023-02-02T01:04:51.414Z,13.60
2023-02-02T01:07:17.296Z,12.73
2023-02-02T01:09:43.149Z,12.02
2023-02-02T01:12:09.022Z,8.20
2023-02-02T01:14:34.828Z,9.32
2023-02-02T01:17:00.827Z,6.72
2023-02-02T01:19:26.753Z,5.82
2023-02-02T01:21:52.532Z,5.00
2023-02-02T01:24:18.395Z,4.40
2023-02-02T01:26:44.342Z,4.18
2023-02-02T01:29:10.297Z,4.00
2023-02-02T01:31:37.479Z,3.65
2023-02-02T01:34:03.517Z,3.53
2023-02-02T01:36:29.419Z,4.57
2023-02-02T01:38:55.361Z,3.22
2023-02-02T01:41:23.852Z,4.20
2023-02-02T01:43:56.591Z,4.00
2023-02-02T01:46:25.298Z,3.78
2023-02-02T01:49:14.889Z,3.85
2023-02-02T01:51:55.288Z,4.15
2023-02-02T01:54:31.536Z,3.88
2023-02-02T01:57:02.139Z,3.72
2023-02-02T01:59:30.285Z,3.40
2023-02-02T02:01:57.456Z,4.32
2023-02-02T02:04:25.174Z,4.93
2023-02-02T02:06:52.910Z,5.25
2023-02-02T02:09:19.060Z,5.63
2023-02-02T02:11:45.239Z,5.30
2023-02-02T02:14:31.965Z,6.47
2023-02-02T02:17:03.767Z,7.65
2023-02-02T02:20:19.449Z,8.52
2023-02-02T02:23:25.852Z,9.02
2023-02-02T02:31:23.398Z,10.43
2023-02-02T02:34:17.178Z,11.60
2023-02-02T02:37:11.263Z,12.93
2023-02-02T02:40:07.950Z,12.73
2023-02-02T02:42:39.161Z,13.35
2023-02-02T02:45:08.259Z,12.65
2023-02-02T02:47:35.288Z,12.45
2023-02-02T02:50:01.134Z,11.80
2023-02-02T02:52:27.028Z,12.05
2023-02-02T02:54:54.906Z,13.43
2023-02-02T02:57:39.423Z,12.48
2023-02-02T03:00:27.250Z,12.73
2023-02-02T03:03:05.022Z,13.25
2023-02-02T03:05:48.903Z,9.35
2023-02-02T03:08:31.376Z,10.10
2023-02-02T03:10:59.328Z,9.02
2023-02-02T03:13:26.639Z,8.43
2023-02-02T03:15:52.862Z,8.25
2023-02-02T03:18:22.103Z,8.30
2023-02-02T03:20:47.931Z,9.82
2023-02-02T03:23:13.980Z,9.88
2023-02-02T03:25:40.040Z,9.05
2023-02-02T03:28:06.521Z,9.80
2023-02-02T03:30:33.622Z,8.63
2023-02-02T03:33:00.145Z,10.02
2023-02-02T03:35:26.248Z,8.65
2023-02-02T03:37:52.275Z,8.55
2023-02-02T03:40:18.594Z,8.55
2023-02-02T03:42:44.523Z,9.13
2023-02-02T03:45:10.772Z,8.32
2023-02-02T03:47:36.560Z,8.80
2023-02-02T03:50:02.566Z,7.82
2023-02-02T03:52:28.357Z,8.18
2023-02-02T03:54:54.156Z,8.10
2023-02-02T03:57:19.930Z,9.15
2023-02-02T03:59:45.827Z,9.48
2023-02-02T04:02:11.877Z,8.90
2023-02-02T04:04:37.641Z,9.55
2023-02-02T04:07:03.597Z,8.15
2023-02-02T04:09:29.377Z,8.43
2023-02-02T04:11:55.150Z,8.63
2023-02-02T04:14:20.946Z,8.85
2023-02-02T04:16:46.810Z,9.50
2023-02-02T04:19:13.282Z,8.75
2023-02-02T04:21:39.646Z,8.73
2023-02-02T04:24:06.901Z,9.35
2023-02-02T04:26:32.757Z,10.25
2023-02-02T04:28:58.559Z,9.45
2023-02-02T04:31:24.458Z,10.05
2023-02-02T04:33:50.395Z,10.40
2023-02-02T04:36:16.160Z,10.80
2023-02-02T04:38:41.942Z,11.27
2023-02-02T04:41:09.888Z,10.65
2023-02-02T04:43:36.838Z,11.82
2023-02-02T04:46:03.205Z,12.93
2023-02-02T04:48:29.333Z,13.45
2023-02-02T04:51:03.626Z,14.48
2023-02-02T04:53:29.781Z,13.60
2023-02-02T04:55:55.696Z,14.85
2023-02-02T04:58:22.024Z,14.95
2023-02-02T05:00:47.833Z,15.00
2023-02-02T05:03:13.619Z,15.45
2023-02-02T05:05:39.452Z,13.93
2023-02-02T05:08:07.530Z,14.48
2023-02-02T05:10:33.364Z,15.98
2023-02-02T05:12:59.126Z,15.02
2023-02-02T05:15:25.227Z,14.43
2023-02-02T05:17:51.397Z,15.15
2023-02-02T05:20:17.397Z,14.38
2023-02-02T05:22:43.251Z,14.45
2023-02-02T05:25:09.420Z,15.82
2023-02-02T05:27:35.313Z,14.63
2023-02-02T05:30:01.591Z,15.68
2023-02-02T05:32:29.040Z,14.32
2023-02-02T05:34:55.107Z,12.85
2023-02-02T05:37:21.023Z,13.88
2023-02-02T05:39:47.103Z,12.32
2023-02-02T05:42:17.511Z,13.32
2023-02-02T05:44:44.237Z,14.07
2023-02-02T05:47:10.034Z,14.55
2023-02-02T05:49:35.847Z,15.18
2023-02-02T05:52:01.699Z,15.60
2023-02-02T05:54:27.488Z,16.52
2023-02-02T05:56:55.115Z,17.80
2023-02-02T05:59:21.436Z,18.63
2023-02-02T06:01:48.034Z,20.05
2023-02-02T06:04:14.829Z,18.80
2023-02-02T06:06:41.421Z,17.67
2023-02-02T06:09:07.919Z,17.83
2023-02-02T06:11:34.140Z,16.88
2023-02-02T06:14:00.027Z,16.40
2023-02-02T06:16:26.124Z,19.60
2023-02-02T06:18:51.876Z,17.27
2023-02-02T06:21:19.167Z,18.42
2023-02-02T06:23:45.291Z,18.58
2023-02-02T06:26:12.497Z,17.08
2023-02-02T06:28:38.316Z,17.25
2023-02-02T06:31:06.094Z,18.20
2023-02-02T06:33:32.160Z,17.92
2023-02-02T06:36:00.285Z,18.38
2023-02-02T06:38:26.385Z,16.20
2023-02-02T06:40:52.221Z,17.60
2023-02-02T06:43:18.555Z,17.10
2023-02-02T06:45:44.377Z,17.27
2023-02-02T06:48:10.248Z,18.27
2023-02-02T06:50:39.482Z,16.50
2023-02-02T06:53:05.401Z,17.25
2023-02-02T06:55:31.692Z,17.67
2023-02-02T06:57:58.805Z,16.55
2023-02-02T07:00:25.879Z,17.48
2023-02-02T07:02:51.852Z,16.95
2023-02-02T07:05:23.479Z,15.52
2023-02-02T07:07:50.525Z,15.00
2023-02-02T07:11:13.855Z,15.52
2023-02-02T07:13:06.100Z,15.43
2023-02-02T07:15:33.148Z,15.90
2023-02-02T07:17:59.709Z,15.80
2023-02-02T07:20:26.021Z,15.20
2023-02-02T07:22:51.870Z,13.80
2023-02-02T07:25:17.830Z,15.55
2023-02-02T07:27:43.733Z,14.18
2023-02-02T07:30:10.276Z,15.00
2023-02-02T07:32:36.157Z,15.25
2023-02-02T07:35:01.913Z,13.45
2023-02-02T07:37:27.894Z,13.35
2023-02-02T07:39:53.667Z,13.73
2023-02-02T07:42:19.525Z,12.95
2023-02-02T07:44:45.337Z,14.05
2023-02-02T07:47:11.150Z,14.23
2023-02-02T07:49:37.004Z,13.48
2023-02-02T07:52:02.859Z,15.55
2023-02-02T07:54:28.731Z,15.77
2023-02-02T07:56:54.533Z,15.52
2023-02-02T07:59:20.327Z,15.35
2023-02-02T08:01:46.233Z,15.63
2023-02-02T08:04:12.125Z,16.13
2023-02-02T08:06:39.132Z,15.60
2023-02-02T08:09:09.885Z,16.35
2023-02-02T08:11:37.126Z,15.40
2023-02-02T08:14:03.994Z,15.52
2023-02-02T08:16:32.031Z,16.77
2023-02-02T08:18:58.655Z,15.55
2023-02-02T08:21:24.790Z,15.40
2023-02-02T08:23:51.944Z,14.73
2023-02-02T08:26:21.529Z,14.88
2023-02-02T08:28:51.541Z,14.13
2023-02-02T08:31:23.517Z,12.52
2023-02-02T08:33:50.273Z,14.38
2023-02-02T08:36:18.626Z,11.93
2023-02-02T08:38:45.305Z,12.23
2023-02-02T08:41:13.459Z,12.70
2023-02-02T08:43:40.311Z,11.50
2023-02-02T08:46:08.446Z,11.60
2023-02-02T08:48:35.422Z,12.63
2023-02-02T08:51:02.418Z,12.30
2023-02-02T08:53:28.909Z,12.75
2023-02-02T08:55:58.776Z,11.65
2023-02-02T08:58:24.982Z,12.15
2023-02-02T09:00:50.809Z,11.68
2023-02-02T09:03:16.578Z,11.45
2023-02-02T09:05:43.486Z,11.77
2023-02-02T09:08:09.797Z,11.05
2023-02-02T09:10:36.938Z,11.43
2023-02-02T09:13:03.706Z,9.93
2023-02-02T09:15:30.231Z,10.38
2023-02-02T09:17:56.232Z,10.52
2023-02-02T09:20:22.208Z,10.45
2023-02-02T09:22:48.169Z,8.30
2023-02-02T09:25:14.294Z,10.02
2023-02-02T09:27:40.799Z,9.85
2023-02-02T09:30:08.436Z,9.10
2023-02-02T09:32:34.436Z,7.88
2023-02-02T09:35:00.284Z,8.65
2023-02-02T09:37:26.910Z,8.73
2023-02-02T09:39:52.933Z,8.40
2023-02-02T09:42:30.800Z,8.55
2023-02-02T09:45:02.461Z,7.82
2023-02-02T09:48:00.566Z,8.32
2023-02-02T09:50:49.819Z,7.57
2023-02-02T09:53:18.521Z,8.52
2023-02-02T09:55:47.873Z,8.55
2023-02-02T09:58:24.387Z,7.43
2023-02-02T10:01:15.587Z,8.05
2023-02-02T10:04:05.898Z,8.30
2023-02-02T10:06:40.049Z,7.40
2023-02-02T10:09:46.708Z,7.18
2023-02-02T10:12:40.722Z,8.10
2023-02-02T10:15:23.661Z,8.48
2023-02-02T10:17:52.440Z,7.88
2023-02-02T10:20:36.857Z,6.43
2023-02-02T10:23:15.331Z,6.15
2023-02-02T10:25:53.708Z,6.78
2023-02-02T10:28:19.973Z,6.68
2023-02-02T10:30:53.481Z,7.22
2023-02-02T10:33:39.033Z,7.22
2023-02-02T10:36:10.948Z,6.45
2023-02-02T10:39:07.983Z,5.70
2023-02-02T10:42:18.990Z,7.18
2023-02-02T10:44:55.876Z,7.68
2023-02-02T10:47:31.517Z,8.05
2023-02-02T10:50:13.067Z,9.07
2023-02-02T10:53:04.910Z,8.90
2023-02-02T10:55:35.997Z,10.27
2023-02-02T10:58:10.983Z,9.63
2023-02-02T11:00:58.125Z,10.70
2023-02-02T11:03:28.870Z,11.02
2023-02-02T11:06:16.311Z,10.48
2023-02-02T11:08:44.112Z,11.20
2023-02-02T11:11:44.536Z,13.40
2023-02-02T11:14:18.117Z,13.93
2023-02-02T11:16:45.194Z,14.98
2023-02-02T11:19:16.809Z,15.60
2023-02-02T11:21:57.467Z,16.80
2023-02-02T11:24:27.850Z,17.42
2023-02-02T11:27:03.883Z,18.48
2023-02-02T11:29:38.711Z,18.48
2023-02-02T11:32:37.322Z,18.77
2023-02-02T11:35:03.088Z,19.50
2023-02-02T11:37:34.506Z,18.33
2023-02-02T11:40:23.622Z,19.60
2023-02-02T11:42:51.350Z,18.40
2023-02-02T11:45:25.155Z,20.27
2023-02-02T11:47:51.226Z,19.50
2023-02-02T11:50:26.173Z,21.75
2023-02-02T11:52:52.497Z,20.95
2023-02-02T11:55:27.382Z,20.58
2023-02-02T11:58:14.731Z,18.63
2023-02-02T12:00:54.996Z,18.08
2023-02-02T12:03:38.340Z,17.55
2023-02-02T12:06:25.472Z,19.67
2023-02-02T12:09:03.055Z,18.45
2023-02-02T12:11:53.423Z,19.52
2023-02-02T12:14:21.971Z,19.38
2023-02-02T12:16:58.417Z,19.23
2023-02-02T12:19:48.175Z,21.73
2023-02-02T12:22:38.064Z,18.80
2023-02-02T12:25:22.156Z,18.98
2023-02-02T12:27:59.153Z,18.85
2023-02-02T12:30:40.200Z,20.42
2023-02-02T12:33:35.370Z,20.08
2023-02-02T12:36:14.178Z,23.15
2023-02-02T12:39:01.940Z,21.00
2023-02-02T12:41:31.895Z,22.10
2023-02-02T12:44:25.906Z,23.83
2023-02-02T12:47:13.746Z,24.20
2023-02-02T12:49:48.688Z,24.38
2023-02-02T12:52:33.055Z,23.58
2023-02-02T12:55:27.153Z,21.25
2023-02-02T12:58:19.992Z,21.10
2023-02-02T13:01:31.124Z,21.48
2023-02-02T13:04:12.935Z,18.77
2023-02-02T13:06:55.644Z,19.35
2023-02-02T13:09:58.960Z,19.63
2023-02-02T13:12:27.862Z,19.42
2023-02-02T13:14:58.552Z,18.10
2023-02-02T13:17:38.931Z,18.13
2023-02-02T13:20:23.315Z,17.88
2023-02-02T13:22:54.381Z,18.80
2023-02-02T13:25:48.525Z,16.25
2023-02-02T13:28:41.699Z,17.75
2023-02-02T13:31:36.055Z,16.63
2023-02-02T13:34:25.110Z,15.10
2023-02-02T13:37:01.246Z,16.08
2023-02-02T13:39:34.360Z,14.65
2023-02-02T13:42:02.177Z,13.98
2023-02-02T13:44:36.988Z,13.43
2023-02-02T13:47:10.624Z,14.48
2023-02-02T13:49:43.544Z,13.38
2023-02-02T13:52:24.629Z,14.32
2023-02-02T13:55:00.049Z,12.75
2023-02-02T13:57:37.457Z,13.63
2023-02-02T14:00:30.082Z,14.90
2023-02-02T14:02:58.841Z,12.95
2023-02-02T14:05:37.396Z,13.32
2023-02-02T14:08:19.007Z,13.65
2023-02-02T14:10:58.187Z,13.55
2023-02-02T14:13:47.080Z,13.25
2023-02-02T14:16:36.149Z,12.73
2023-02-02T14:19:04.413Z,13.48
2023-02-02T14:21:33.255Z,12.00
2023-02-02T14:24:12.150Z,12.57
2023-02-02T14:26:45.340Z,13.07
2023-02-02T14:29:32.826Z,15.02
2023-02-02T14:32:01.259Z,13.40
2023-02-02T14:34:41.256Z,14.45
2023-02-02T14:37:22.083Z,13.88
2023-02-02T14:40:17.193Z,13.32
2023-02-02T14:43:13.993Z,12.93
2023-02-02T14:45:44.024Z,12.43
2023-02-02T14:48:13.342Z,14.27
2023-02-02T14:50:39.840Z,14.27
2023-02-02T14:53:12.384Z,11.95
2023-02-02T14:55:50.955Z,12.93
2023-02-02T14:58:33.512Z,12.73
2023-02-02T15:01:06.929Z,13.77
2023-02-02T15:03:35.796Z,14.05
2023-02-02T15:06:04.946Z,13.85
2023-02-02T15:08:30.875Z,13.52
2023-02-02T15:11:23.848Z,14.30
2023-02-02T15:14:06.445Z,12.95
2023-02-02T15:16:34.964Z,14.05
2023-02-02T15:19:12.522Z,12.57
2023-02-02T15:21:40.247Z,15.82
2023-02-02T15:24:18.162Z,14.80
2023-02-02T15:26:45.869Z,15.57
2023-02-02T15:29:44.125Z,15.77
2023-02-02T15:32:16.798Z,16.30
2023-02-02T15:34:50.295Z,15.18
2023-02-02T15:37:22.450Z,16.40
2023-02-02T15:39:55.177Z,17.77
2023-02-02T15:42:52.499Z,16.00
2023-02-02T15:45:27.270Z,17.35
2023-02-02T15:47:55.235Z,17.70
2023-02-02T15:50:26.241Z,17.58
2023-02-02T15:52:53.920Z,17.77
2023-02-02T15:55:21.515Z,19.13
2023-02-02T15:57:47.546Z,18.58
2023-02-02T16:00:34.176Z,17.88
2023-02-02T16:03:10.231Z,20.80
2023-02-02T16:05:36.011Z,19.08
2023-02-02T16:08:06.586Z,19.83
2023-02-02T16:10:34.459Z,20.00
2023-02-02T16:13:01.192Z,19.40
2023-02-02T16:15:28.743Z,21.90
2023-02-02T16:17:59.791Z,21.15
2023-02-02T16:20:27.993Z,20.67
2023-02-02T16:23:00.987Z,21.85
2023-02-02T16:25:29.899Z,20.95
2023-02-02T16:27:59.763Z,22.85
2023-02-02T16:30:28.663Z,21.15
2023-02-02T16:32:54.753Z,21.42
2023-02-02T16:35:40.171Z,21.00
2023-02-02T16:38:14.811Z,20.40
2023-02-02T16:40:41.475Z,22.67
2023-02-02T16:43:20.274Z,21.20
2023-02-02T16:45:59.786Z,21.58
2023-02-02T16:48:33.605Z,20.35
2023-02-02T16:51:32.194Z,20.70
2023-02-02T16:54:05.421Z,20.50
2023-02-02T16:56:38.326Z,21.35
2023-02-02T16:59:26.946Z,20.65
2023-02-02T17:02:02.700Z,21.35
2023-02-02T17:04:31.622Z,20.35
2023-02-02T17:07:09.497Z,19.75
2023-02-02T17:09:40.282Z,19.40
2023-02-02T17:12:33.262Z,17.85
2023-02-02T17:15:19.961Z,17.33
2023-02-02T17:17:47.900Z,17.50
2023-02-02T17:20:15.028Z,17.95
2023-02-02T17:22:43.984Z,15.40
2023-02-02T17:25:16.517Z,16.52
2023-02-02T17:27:43.862Z,15.93
2023-02-02T17:30:14.876Z,14.50
2023-02-02T17:32:41.267Z,14.00
2023-02-02T17:35:14.819Z,12.82
2023-02-02T17:37:40.637Z,13.05
2023-02-02T17:40:08.648Z,14.05
2023-02-02T17:42:34.807Z,13.75
2023-02-02T17:45:00.848Z,12.48
2023-02-02T17:47:26.979Z,12.65
2023-02-02T17:49:53.046Z,12.63
2023-02-02T17:52:19.219Z,13.85
2023-02-02T17:54:45.138Z,14.13
2023-02-02T17:57:11.031Z,14.68
2023-02-02T17:59:36.817Z,15.02
2023-02-02T18:02:03.345Z,13.68
2023-02-02T18:04:29.359Z,14.43
2023-02-02T18:06:55.236Z,13.75
2023-02-02T18:09:21.162Z,14.98
2023-02-02T18:11:49.119Z,13.32
2023-02-02T18:14:15.415Z,13.55
2023-02-02T18:16:41.314Z,13.50
2023-02-02T18:19:07.322Z,14.68
2023-02-02T18:21:33.317Z,13.27
2023-02-02T18:23:59.606Z,13.13
2023-02-02T18:26:26.496Z,11.70
2023-02-02T18:28:52.752Z,11.52
2023-02-02T18:31:23.074Z,12.63
2023-02-02T18:33:49.576Z,12.57
2023-02-02T18:36:19.371Z,12.23
2023-02-02T18:38:46.814Z,12.45
2023-02-02T18:41:13.995Z,12.35
2023-02-02T18:43:40.045Z,13.38
2023-02-02T18:46:09.672Z,12.00
2023-02-02T18:48:36.455Z,10.88
2023-02-02T18:51:07.231Z,12.05
2023-02-02T18:53:34.147Z,11.20
2023-02-02T18:56:07.078Z,16.35
2023-02-02T18:58:34.598Z,10.65
2023-02-02T19:01:14.617Z,11.75
2023-02-02T19:03:41.419Z,10.48
2023-02-02T19:06:27.740Z,11.57
2023-02-02T19:08:54.129Z,10.13
2023-02-02T19:11:22.470Z,9.82
2023-02-02T19:13:49.859Z,10.23
2023-02-02T19:16:25.463Z,10.68
2023-02-02T19:21:17.134Z,8.48
2023-02-02T19:23:45.333Z,10.02
2023-02-02T19:26:20.299Z,9.48
2023-02-02T19:28:46.345Z,9.82
2023-02-02T19:31:13.864Z,8.93
2023-02-02T19:33:46.103Z,10.88
2023-02-02T19:36:15.013Z,11.10
2023-02-02T19:38:41.059Z,10.82
2023-02-02T19:41:35.544Z,11.00
2023-02-02T19:44:10.048Z,10.73
2023-02-02T19:46:42.925Z,11.80
2023-02-02T19:49:17.480Z,11.23
2023-02-02T19:51:51.895Z,11.65
2023-02-02T19:54:27.162Z,12.05
2023-02-02T19:56:56.441Z,12.15
2023-02-02T19:59:24.907Z,13.07
2023-02-02T20:01:51.967Z,12.95
2023-02-02T20:04:19.503Z,13.43
2023-02-02T20:06:58.447Z,16.23
2023-02-02T20:09:33.556Z,19.02
2023-02-02T20:11:59.915Z,22.20
2023-02-02T20:14:29.508Z,23.95
2023-02-02T20:17:07.000Z,24.33
2023-02-02T20:19:39.272Z,27.55
2023-02-02T20:22:24.543Z,28.90
2023-02-02T20:24:51.262Z,30.73
2023-02-02T20:27:27.762Z,29.77
2023-02-02T20:30:14.988Z,30.52
2023-02-02T20:32:41.758Z,32.80
2023-02-02T20:35:24.579Z,33.63
2023-02-02T20:37:51.068Z,34.65
2023-02-02T20:40:22.046Z,34.10
2023-02-02T20:42:48.622Z,36.25
2023-02-02T20:45:18.677Z,35.33
2023-02-02T20:47:45.303Z,35.72
2023-02-02T20:50:14.032Z,37.45
2023-02-02T20:52:40.185Z,38.33
2023-02-02T20:55:07.013Z,38.50
2023-02-02T20:57:33.713Z,38.20
2023-02-02T20:59:59.823Z,40.15
2023-02-02T21:02:26.617Z,40.67
2023-02-02T21:04:53.557Z,42.42
2023-02-02T21:07:21.042Z,39.67
2023-02-02T21:09:48.812Z,37.50
2023-02-02T21:12:15.371Z,38.17
2023-02-02T21:14:41.340Z,40.00
2023-02-02T21:17:14.818Z,40.13
2023-02-02T21:19:42.414Z,38.63
2023-02-02T21:22:08.452Z,39.80
2023-02-02T21:24:34.292Z,38.45
2023-02-02T21:27:01.364Z,38.60
2023-02-02T21:29:30.510Z,42.50
2023-02-02T21:31:58.821Z,39.28
2023-02-02T21:34:25.498Z,39.03
2023-02-02T21:36:56.044Z,36.72
2023-02-02T21:39:34.820Z,33.90
2023-02-02T21:42:06.290Z,34.95
2023-02-02T21:44:32.938Z,30.52
2023-02-02T21:47:00.568Z,29.25
2023-02-02T21:49:35.534Z,28.05
2023-02-02T21:52:13.128Z,27.45
2023-02-02T21:54:39.778Z,28.67
2023-02-02T21:57:20.544Z,29.50
2023-02-02T21:59:52.458Z,28.50
2023-02-02T22:02:37.287Z,29.05
2023-02-02T22:05:17.269Z,30.83
2023-02-02T22:07:46.945Z,30.75
2023-02-02T22:10:42.360Z,30.30
2023-02-02T22:13:19.644Z,35.75
2023-02-02T22:15:46.943Z,36.80
2023-02-02T22:18:20.953Z,35.80
2023-02-02T22:20:49.897Z,35.85
2023-02-02T22:23:21.018Z,34.05
2023-02-02T22:25:48.993Z,35.47
2023-02-02T22:28:27.107Z,33.35
2023-02-02T22:30:54.814Z,36.08
2023-02-02T22:33:22.701Z,33.53
2023-02-02T22:35:49.112Z,36.28
2023-02-02T22:38:19.842Z,38.22
2023-02-02T22:40:46.870Z,36.35
2023-02-02T22:43:15.447Z,39.42
2023-02-02T22:45:42.655Z,37.50
2023-02-02T22:48:08.810Z,36.05
2023-02-02T22:50:35.229Z,36.67
2023-02-02T22:53:02.770Z,35.53
2023-02-02T22:55:29.058Z,38.88
2023-02-02T22:57:54.835Z,37.95
2023-02-02T23:00:24.284Z,39.33
2023-02-02T23:02:51.447Z,38.65
2023-02-02T23:05:18.887Z,37.53
2023-02-02T23:07:45.867Z,38.35
2023-02-02T23:10:14.232Z,35.75
2023-02-02T23:12:41.173Z,34.63
2023-02-02T23:15:07.516Z,35.10
2023-02-02T23:17:34.623Z,36.70
2023-02-02T23:20:06.280Z,32.72
2023-02-02T23:22:32.298Z,33.42
2023-02-02T23:24:58.608Z,33.95
2023-02-02T23:27:25.142Z,34.30
2023-02-02T23:29:50.984Z,32.10
2023-02-02T23:32:16.807Z,31.02
2023-02-02T23:34:42.727Z,29.70
2023-02-02T23:37:08.513Z,31.20
2023-02-02T23:39:34.294Z,31.00
2023-02-02T23:42:00.190Z,30.63
2023-02-02T23:44:26.070Z,29.63
2023-02-02T23:46:52.531Z,30.83
2023-02-02T23:49:18.864Z,31.23
2023-02-02T23:51:45.166Z,29.48
2023-02-02T23:54:12.233Z,31.58
2023-02-02T23:56:39.422Z,30.02
2023-02-02T23:59:05.295Z,31.02
